AFR7309 LFMN-LFPG
Flight info
| Callsign | AFR7309 |
|---|---|
| Flight time | 1h 11m |
| Altitude | 34000 |
| Route | OKTET DCT GIPNO DCT LOGNI DCT MOKIP DCT ARFOZ DCT TINIL |
| Aircraft | A320/M-SDE3FGHIRWY/LB1 |
Departure
| Time | 2026-05-01 14:08 |
|---|---|
| Airport | Nice-Côte d'Azur Airport (LFMN) |
Arrival
| Time | 2026-05-01 15:19 |
|---|---|
| Airport | Charles de Gaulle International Airport (LFPG) |
| Time | Latitude | Longitude | Altitude | Speed | Heading |
|---|---|---|---|---|---|
| 2026-05-01 13:27 | 43.65892 | 7.20666 | 27 ft | 0 kts | 315° |
| 2026-05-01 13:54 | 43.65880 | 7.20683 | 22 ft | 2 kts | 315° |
| 2026-05-01 13:54 | 43.65868 | 7.20699 | 24 ft | 2 kts | 315° |
| 2026-05-01 13:54 | 43.65855 | 7.20716 | 25 ft | 2 kts | 310° |
| 2026-05-01 13:54 | 43.65850 | 7.20737 | 24 ft | 2 kts | 239° |
| 2026-05-01 13:55 | 43.65851 | 7.20741 | 24 ft | 0 kts | 229° |
| 2026-05-01 13:57 | 43.65820 | 7.20711 | 23 ft | 9 kts | 217° |
| 2026-05-01 13:57 | 43.65778 | 7.20658 | 22 ft | 9 kts | 224° |
| 2026-05-01 13:58 | 43.65717 | 7.20576 | 22 ft | 18 kts | 225° |
| 2026-05-01 13:58 | 43.65623 | 7.20446 | 22 ft | 20 kts | 225° |
| 2026-05-01 13:58 | 43.65521 | 7.20306 | 22 ft | 21 kts | 225° |
| 2026-05-01 13:58 | 43.65413 | 7.20179 | 22 ft | 19 kts | 193° |
| 2026-05-01 13:59 | 43.65302 | 7.20263 | 22 ft | 19 kts | 135° |
| 2026-05-01 13:59 | 43.65270 | 7.20307 | 22 ft | 0 kts | 135° |
| 2026-05-01 14:02 | 43.65267 | 7.20311 | 22 ft | 2 kts | 135° |
| 2026-05-01 14:02 | 43.65255 | 7.20328 | 23 ft | 5 kts | 135° |
| 2026-05-01 14:03 | 43.65177 | 7.20435 | 22 ft | 16 kts | 135° |
| 2026-05-01 14:03 | 43.65072 | 7.20464 | 22 ft | 17 kts | 206° |
| 2026-05-01 14:03 | 43.65012 | 7.20391 | 22 ft | 18 kts | 224° |
| 2026-05-01 14:03 | 43.64911 | 7.20250 | 22 ft | 23 kts | 225° |
| 2026-05-01 14:04 | 43.64762 | 7.20157 | 22 ft | 4 kts | 139° |
| 2026-05-01 14:04 | 43.64762 | 7.20158 | 22 ft | 0 kts | 139° |
| 2026-05-01 14:04 | 43.64760 | 7.20161 | 22 ft | 3 kts | 139° |
| 2026-05-01 14:05 | 43.64715 | 7.20227 | 22 ft | 16 kts | 121° |
| 2026-05-01 14:05 | 43.64732 | 7.20330 | 23 ft | 0 kts | 46° |
| 2026-05-01 14:06 | 43.64735 | 7.20334 | 22 ft | 5 kts | 46° |
| 2026-05-01 14:07 | 43.64939 | 7.20615 | 22 ft | 79 kts | 45° |
| 2026-05-01 14:07 | 43.65486 | 7.21361 | 26 ft | 138 kts | 44° |
| 2026-05-01 14:07 | 43.66278 | 7.22452 | 126 ft | 176 kts | 45° |
| 2026-05-01 14:08 | 43.67158 | 7.25457 | 1514 ft | 174 kts | 108° |
| 2026-05-01 14:08 | 43.66449 | 7.26834 | 2059 ft | 187 kts | 137° |
| 2026-05-01 14:08 | 43.65370 | 7.28016 | 2501 ft | 205 kts | 141° |
| 2026-05-01 14:08 | 43.64198 | 7.29223 | 3170 ft | 212 kts | 140° |
| 2026-05-01 14:09 | 43.63025 | 7.30489 | 3938 ft | 215 kts | 139° |
| 2026-05-01 14:09 | 43.61798 | 7.31704 | 4675 ft | 222 kts | 155° |
| 2026-05-01 14:09 | 43.60247 | 7.31892 | 5347 ft | 233 kts | 194° |
| 2026-05-01 14:09 | 43.58776 | 7.30883 | 6001 ft | 240 kts | 211° |
| 2026-05-01 14:10 | 43.57342 | 7.29652 | 6729 ft | 245 kts | 212° |
| 2026-05-01 14:10 | 43.55947 | 7.28298 | 7426 ft | 247 kts | 227° |
| 2026-05-01 14:10 | 43.55078 | 7.26268 | 8100 ft | 249 kts | 258° |
| 2026-05-01 14:10 | 43.55041 | 7.23937 | 8790 ft | 247 kts | 288° |
| 2026-05-01 14:11 | 43.55814 | 7.21861 | 9494 ft | 245 kts | 311° |
| 2026-05-01 14:11 | 43.57958 | 7.18133 | 10911 ft | 251 kts | 311° |
| 2026-05-01 14:11 | 43.59046 | 7.16227 | 11587 ft | 254 kts | 311° |
| 2026-05-01 14:12 | 43.60141 | 7.14300 | 12268 ft | 257 kts | 311° |
| 2026-05-01 14:12 | 43.61314 | 7.12432 | 12946 ft | 258 kts | 320° |
| 2026-05-01 14:12 | 43.62741 | 7.10771 | 13229 ft | 280 kts | 322° |
| 2026-05-01 14:12 | 43.64312 | 7.08993 | 13440 ft | 303 kts | 323° |
| 2026-05-01 14:13 | 43.66014 | 7.07071 | 13616 ft | 326 kts | 322° |
| 2026-05-01 14:13 | 43.67826 | 7.05018 | 13758 ft | 349 kts | 322° |
| 2026-05-01 14:13 | 43.69729 | 7.02849 | 14058 ft | 364 kts | 322° |
| 2026-05-01 14:13 | 43.71696 | 7.00598 | 14609 ft | 370 kts | 322° |
| 2026-05-01 14:14 | 43.73695 | 6.98304 | 15231 ft | 374 kts | 322° |
| 2026-05-01 14:14 | 43.75691 | 6.96010 | 15819 ft | 378 kts | 322° |
| 2026-05-01 14:14 | 43.77725 | 6.93674 | 16417 ft | 382 kts | 322° |
| 2026-05-01 14:14 | 43.79779 | 6.91314 | 16993 ft | 386 kts | 322° |
| 2026-05-01 14:15 | 43.81857 | 6.88925 | 17564 ft | 390 kts | 322° |
| 2026-05-01 14:15 | 43.83956 | 6.86507 | 18137 ft | 393 kts | 322° |
| 2026-05-01 14:15 | 43.86075 | 6.84066 | 18663 ft | 397 kts | 321° |
| 2026-05-01 14:15 | 43.88216 | 6.81599 | 19110 ft | 401 kts | 321° |
| 2026-05-01 14:16 | 43.90346 | 6.79140 | 19599 ft | 403 kts | 321° |
| 2026-05-01 14:16 | 43.92577 | 6.76739 | 20048 ft | 406 kts | 328° |
| 2026-05-01 14:16 | 43.95076 | 6.74865 | 20532 ft | 407 kts | 339° |
| 2026-05-01 14:16 | 43.97763 | 6.73610 | 21002 ft | 408 kts | 348° |
| 2026-05-01 14:17 | 44.00503 | 6.72718 | 21479 ft | 410 kts | 348° |
| 2026-05-01 14:17 | 44.03292 | 6.71813 | 21951 ft | 412 kts | 348° |
| 2026-05-01 14:17 | 44.06103 | 6.70897 | 22394 ft | 415 kts | 348° |
| 2026-05-01 14:17 | 44.08924 | 6.69977 | 22856 ft | 418 kts | 348° |
| 2026-05-01 14:18 | 44.11770 | 6.69046 | 23312 ft | 420 kts | 347° |
| 2026-05-01 14:18 | 44.14630 | 6.68109 | 23772 ft | 422 kts | 347° |
| 2026-05-01 14:18 | 44.17461 | 6.67183 | 24145 ft | 424 kts | 348° |
| 2026-05-01 14:18 | 44.19409 | 6.66546 | 24402 ft | 425 kts | 347° |
| 2026-05-01 14:19 | 44.23241 | 6.65284 | 24896 ft | 427 kts | 347° |
| 2026-05-01 14:19 | 44.26144 | 6.64328 | 25249 ft | 429 kts | 347° |
| 2026-05-01 14:19 | 44.29053 | 6.63372 | 25621 ft | 430 kts | 347° |
| 2026-05-01 14:19 | 44.31978 | 6.62411 | 25993 ft | 432 kts | 347° |
| 2026-05-01 14:20 | 44.34910 | 6.61444 | 26352 ft | 434 kts | 346° |
| 2026-05-01 14:20 | 44.40778 | 6.59511 | 27047 ft | 437 kts | 346° |
| 2026-05-01 14:20 | 44.43751 | 6.58524 | 27380 ft | 439 kts | 346° |
| 2026-05-01 14:21 | 44.46710 | 6.57429 | 27678 ft | 441 kts | 340° |
| 2026-05-01 14:21 | 44.49543 | 6.55744 | 28000 ft | 443 kts | 332° |
| 2026-05-01 14:21 | 44.52177 | 6.53476 | 28316 ft | 444 kts | 325° |
| 2026-05-01 14:22 | 44.57313 | 6.48599 | 28943 ft | 447 kts | 325° |
| 2026-05-01 14:22 | 44.59896 | 6.46150 | 29247 ft | 448 kts | 326° |
| 2026-05-01 14:22 | 44.62478 | 6.43701 | 29560 ft | 449 kts | 325° |
| 2026-05-01 14:22 | 44.65070 | 6.41235 | 29916 ft | 449 kts | 325° |
| 2026-05-01 14:23 | 44.67630 | 6.38792 | 30309 ft | 448 kts | 325° |
| 2026-05-01 14:23 | 44.70206 | 6.36330 | 30678 ft | 447 kts | 325° |
| 2026-05-01 14:23 | 44.72772 | 6.33876 | 31013 ft | 446 kts | 325° |
| 2026-05-01 14:23 | 44.75348 | 6.31411 | 31357 ft | 445 kts | 325° |
| 2026-05-01 14:24 | 44.77910 | 6.28961 | 31711 ft | 443 kts | 325° |
| 2026-05-01 14:24 | 44.80460 | 6.26522 | 32064 ft | 442 kts | 325° |
| 2026-05-01 14:24 | 44.82970 | 6.24119 | 32440 ft | 441 kts | 324° |
| 2026-05-01 14:24 | 44.85507 | 6.21689 | 32769 ft | 440 kts | 324° |
| 2026-05-01 14:25 | 44.88031 | 6.19266 | 33114 ft | 438 kts | 324° |
| 2026-05-01 14:25 | 44.90547 | 6.16844 | 33481 ft | 437 kts | 324° |
| 2026-05-01 14:25 | 44.93046 | 6.14434 | 33863 ft | 435 kts | 324° |
| 2026-05-01 14:25 | 44.95544 | 6.12023 | 34210 ft | 434 kts | 324° |
| 2026-05-01 14:26 | 45.03031 | 6.04787 | 34282 ft | 434 kts | 324° |
| 2026-05-01 14:27 | 45.08018 | 5.99947 | 34276 ft | 435 kts | 323° |
| 2026-05-01 14:27 | 45.12985 | 5.95131 | 34274 ft | 435 kts | 324° |
| 2026-05-01 14:28 | 45.20470 | 5.87850 | 34278 ft | 434 kts | 323° |
| 2026-05-01 14:28 | 45.25452 | 5.82984 | 34267 ft | 434 kts | 323° |
| 2026-05-01 14:29 | 45.30421 | 5.78112 | 34264 ft | 434 kts | 323° |
| 2026-05-01 14:30 | 45.40356 | 5.68347 | 34244 ft | 435 kts | 323° |
| 2026-05-01 14:31 | 45.47849 | 5.60980 | 34237 ft | 436 kts | 323° |
| 2026-05-01 14:31 | 45.52838 | 5.56048 | 34236 ft | 436 kts | 323° |
| 2026-05-01 14:32 | 45.58022 | 5.51626 | 34237 ft | 439 kts | 334° |
| 2026-05-01 14:32 | 45.63620 | 5.48102 | 34239 ft | 440 kts | 334° |
| 2026-05-01 14:33 | 45.69232 | 5.44556 | 34237 ft | 440 kts | 333° |
| 2026-05-01 14:33 | 45.74841 | 5.40999 | 34235 ft | 441 kts | 333° |
| 2026-05-01 14:34 | 45.80457 | 5.37424 | 34233 ft | 441 kts | 333° |
| 2026-05-01 14:34 | 45.86040 | 5.33869 | 34240 ft | 441 kts | 333° |
| 2026-05-01 14:35 | 45.91653 | 5.30294 | 34241 ft | 441 kts | 333° |
| 2026-05-01 14:35 | 45.97266 | 5.26707 | 34241 ft | 441 kts | 333° |
| 2026-05-01 14:36 | 46.02878 | 5.23102 | 34231 ft | 441 kts | 333° |
| 2026-05-01 14:36 | 46.08490 | 5.19492 | 34230 ft | 441 kts | 333° |
| 2026-05-01 14:37 | 46.14061 | 5.15904 | 34235 ft | 441 kts | 333° |
| 2026-05-01 14:37 | 46.19682 | 5.12277 | 34224 ft | 442 kts | 333° |
| 2026-05-01 14:38 | 46.25566 | 5.09608 | 34220 ft | 449 kts | 348° |
| 2026-05-01 14:38 | 46.31851 | 5.09306 | 34219 ft | 453 kts | 357° |
| 2026-05-01 14:39 | 46.38166 | 5.09342 | 34220 ft | 454 kts | 356° |
| 2026-05-01 14:39 | 46.44454 | 5.09364 | 34221 ft | 454 kts | 356° |
| 2026-05-01 14:40 | 46.50782 | 5.09385 | 34222 ft | 455 kts | 356° |
| 2026-05-01 14:40 | 46.57119 | 5.09410 | 34216 ft | 455 kts | 356° |
| 2026-05-01 14:41 | 46.63468 | 5.09430 | 34214 ft | 455 kts | 356° |
| 2026-05-01 14:41 | 46.69773 | 5.09453 | 34217 ft | 455 kts | 356° |
| 2026-05-01 14:42 | 46.76114 | 5.09488 | 34210 ft | 456 kts | 356° |
| 2026-05-01 14:42 | 46.82467 | 5.09524 | 34211 ft | 456 kts | 356° |
| 2026-05-01 14:43 | 46.88753 | 5.09546 | 34214 ft | 456 kts | 357° |
| 2026-05-01 14:43 | 46.95183 | 5.09564 | 34214 ft | 457 kts | 357° |
| 2026-05-01 14:44 | 47.01520 | 5.09590 | 34208 ft | 458 kts | 357° |
| 2026-05-01 14:44 | 47.11096 | 5.09641 | 34203 ft | 459 kts | 358° |
| 2026-05-01 14:45 | 47.20713 | 5.09689 | 34197 ft | 462 kts | 358° |
| 2026-05-01 14:46 | 47.27155 | 5.09718 | 34201 ft | 463 kts | 358° |
| 2026-05-01 14:46 | 47.36819 | 5.09771 | 34198 ft | 465 kts | 359° |
| 2026-05-01 14:47 | 47.43296 | 5.09798 | 34207 ft | 466 kts | 359° |
| 2026-05-01 14:48 | 47.51944 | 5.09818 | 34210 ft | 467 kts | 357° |
| 2026-05-01 14:48 | 47.61244 | 5.06090 | 34210 ft | 463 kts | 329° |
| 2026-05-01 14:49 | 47.66396 | 5.00477 | 34226 ft | 460 kts | 317° |
| 2026-05-01 14:49 | 47.71281 | 4.94323 | 34217 ft | 461 kts | 317° |
| 2026-05-01 14:50 | 47.75359 | 4.89172 | 33426 ft | 466 kts | 317° |
| 2026-05-01 14:50 | 47.81201 | 4.81777 | 30932 ft | 482 kts | 318° |
| 2026-05-01 14:51 | 47.83771 | 4.78515 | 29940 ft | 486 kts | 318° |
| 2026-05-01 14:51 | 47.88948 | 4.71929 | 27745 ft | 491 kts | 318° |
| 2026-05-01 14:52 | 47.94108 | 4.65326 | 26186 ft | 484 kts | 318° |
| 2026-05-01 14:52 | 47.96657 | 4.62063 | 25383 ft | 481 kts | 318° |
| 2026-05-01 14:52 | 48.01600 | 4.55741 | 24674 ft | 459 kts | 318° |
| 2026-05-01 14:53 | 48.04001 | 4.52657 | 24367 ft | 453 kts | 318° |
| 2026-05-01 14:53 | 48.06387 | 4.49585 | 24072 ft | 450 kts | 317° |
| 2026-05-01 14:53 | 48.08766 | 4.46525 | 23758 ft | 448 kts | 318° |
| 2026-05-01 14:53 | 48.11120 | 4.43491 | 23437 ft | 446 kts | 317° |
| 2026-05-01 14:54 | 48.13438 | 4.40497 | 23141 ft | 444 kts | 317° |
| 2026-05-01 14:54 | 48.15769 | 4.37480 | 22843 ft | 441 kts | 318° |
| 2026-05-01 14:54 | 48.18085 | 4.34483 | 22546 ft | 439 kts | 318° |
| 2026-05-01 14:54 | 48.20468 | 4.31400 | 22244 ft | 437 kts | 317° |
| 2026-05-01 14:55 | 48.22688 | 4.28518 | 21964 ft | 435 kts | 317° |
| 2026-05-01 14:55 | 48.24979 | 4.25540 | 21673 ft | 435 kts | 317° |
| 2026-05-01 14:55 | 48.27106 | 4.22320 | 21361 ft | 432 kts | 308° |
| 2026-05-01 14:55 | 48.29025 | 4.18827 | 21081 ft | 431 kts | 307° |
| 2026-05-01 14:56 | 48.30909 | 4.15396 | 20801 ft | 429 kts | 307° |
| 2026-05-01 14:56 | 48.32809 | 4.11932 | 20519 ft | 427 kts | 307° |
| 2026-05-01 14:56 | 48.34698 | 4.08477 | 20225 ft | 426 kts | 307° |
| 2026-05-01 14:56 | 48.36580 | 4.05037 | 19850 ft | 423 kts | 307° |
| 2026-05-01 14:57 | 48.38424 | 4.01663 | 19456 ft | 420 kts | 307° |
| 2026-05-01 14:57 | 48.42122 | 3.94894 | 18686 ft | 415 kts | 307° |
| 2026-05-01 14:57 | 48.43929 | 3.91581 | 18279 ft | 412 kts | 307° |
| 2026-05-01 14:58 | 48.45748 | 3.88247 | 17901 ft | 410 kts | 307° |
| 2026-05-01 14:58 | 48.47562 | 3.84913 | 17532 ft | 408 kts | 307° |
| 2026-05-01 14:58 | 48.49354 | 3.81607 | 17159 ft | 406 kts | 307° |
| 2026-05-01 14:58 | 48.51113 | 3.78350 | 16792 ft | 403 kts | 307° |
| 2026-05-01 14:59 | 48.52886 | 3.75064 | 16423 ft | 401 kts | 307° |
| 2026-05-01 14:59 | 48.54546 | 3.71702 | 16087 ft | 397 kts | 301° |
| 2026-05-01 14:59 | 48.56054 | 3.68190 | 15920 ft | 397 kts | 301° |
| 2026-05-01 14:59 | 48.57555 | 3.64697 | 15721 ft | 396 kts | 301° |
| 2026-05-01 15:00 | 48.60527 | 3.57774 | 15308 ft | 392 kts | 299° |
| 2026-05-01 15:00 | 48.61737 | 3.54097 | 15065 ft | 388 kts | 289° |
| 2026-05-01 15:00 | 48.62716 | 3.50299 | 14768 ft | 386 kts | 289° |
| 2026-05-01 15:01 | 48.63685 | 3.46533 | 14483 ft | 385 kts | 289° |
| 2026-05-01 15:01 | 48.64657 | 3.42761 | 14192 ft | 385 kts | 289° |
| 2026-05-01 15:01 | 48.65618 | 3.39018 | 13897 ft | 384 kts | 289° |
| 2026-05-01 15:01 | 48.66586 | 3.35258 | 13604 ft | 381 kts | 289° |
| 2026-05-01 15:02 | 48.67548 | 3.31525 | 13322 ft | 379 kts | 289° |
| 2026-05-01 15:02 | 48.68180 | 3.29072 | 13137 ft | 377 kts | 289° |
| 2026-05-01 15:02 | 48.69446 | 3.24132 | 12765 ft | 374 kts | 288° |
| 2026-05-01 15:02 | 48.70399 | 3.20456 | 12479 ft | 372 kts | 289° |
| 2026-05-01 15:03 | 48.71474 | 3.16925 | 12192 ft | 371 kts | 298° |
| 2026-05-01 15:03 | 48.72805 | 3.13653 | 11773 ft | 366 kts | 300° |
| 2026-05-01 15:03 | 48.74166 | 3.10407 | 11331 ft | 363 kts | 300° |
| 2026-05-01 15:03 | 48.75665 | 3.07335 | 11192 ft | 363 kts | 314° |
| 2026-05-01 15:04 | 48.77681 | 3.05007 | 11222 ft | 366 kts | 325° |
| 2026-05-01 15:04 | 48.79784 | 3.02823 | 11213 ft | 366 kts | 323° |
| 2026-05-01 15:04 | 48.81859 | 3.00578 | 11219 ft | 366 kts | 323° |
| 2026-05-01 15:04 | 48.83936 | 2.98321 | 11215 ft | 366 kts | 323° |
| 2026-05-01 15:05 | 48.85981 | 2.96098 | 11213 ft | 366 kts | 323° |
| 2026-05-01 15:05 | 48.88045 | 2.93849 | 11213 ft | 366 kts | 323° |
| 2026-05-01 15:05 | 48.89925 | 2.91263 | 11209 ft | 363 kts | 306° |
| 2026-05-01 15:05 | 48.91087 | 2.87901 | 11214 ft | 359 kts | 285° |
| 2026-05-01 15:06 | 48.91769 | 2.84248 | 11215 ft | 358 kts | 282° |
| 2026-05-01 15:06 | 48.92407 | 2.80573 | 11200 ft | 358 kts | 282° |
| 2026-05-01 15:06 | 48.93012 | 2.76899 | 11198 ft | 357 kts | 277° |
| 2026-05-01 15:06 | 48.93162 | 2.73202 | 11198 ft | 355 kts | 268° |
| 2026-05-01 15:07 | 48.93164 | 2.69440 | 11193 ft | 354 kts | 267° |
| 2026-05-01 15:07 | 48.93181 | 2.65684 | 11192 ft | 355 kts | 269° |
| 2026-05-01 15:07 | 48.93285 | 2.61957 | 10868 ft | 351 kts | 270° |
| 2026-05-01 15:07 | 48.93408 | 2.58243 | 10487 ft | 350 kts | 270° |
| 2026-05-01 15:08 | 48.93431 | 2.54577 | 10128 ft | 341 kts | 263° |
| 2026-05-01 15:08 | 48.93218 | 2.51024 | 9704 ft | 335 kts | 261° |
| 2026-05-01 15:08 | 48.92929 | 2.47559 | 9238 ft | 331 kts | 258° |
| 2026-05-01 15:08 | 48.92629 | 2.44082 | 8770 ft | 329 kts | 261° |
| 2026-05-01 15:09 | 48.92385 | 2.40665 | 8499 ft | 320 kts | 261° |
| 2026-05-01 15:09 | 48.92156 | 2.37407 | 8377 ft | 299 kts | 261° |
| 2026-05-01 15:09 | 48.91946 | 2.34340 | 8019 ft | 285 kts | 261° |
| 2026-05-01 15:09 | 48.91744 | 2.31358 | 7449 ft | 280 kts | 261° |
| 2026-05-01 15:10 | 48.91548 | 2.28514 | 7225 ft | 264 kts | 261° |
| 2026-05-01 15:10 | 48.91203 | 2.23286 | 6766 ft | 235 kts | 261° |
| 2026-05-01 15:10 | 48.91050 | 2.20863 | 6529 ft | 226 kts | 261° |
| 2026-05-01 15:11 | 48.90908 | 2.18500 | 6236 ft | 222 kts | 261° |
| 2026-05-01 15:11 | 48.91034 | 2.13894 | 5646 ft | 223 kts | 295° |
| 2026-05-01 15:11 | 48.92093 | 2.12134 | 5086 ft | 239 kts | 331° |
| 2026-05-01 15:12 | 48.93729 | 2.11530 | 5019 ft | 256 kts | 3° |
| 2026-05-01 15:12 | 48.96539 | 2.13834 | 5007 ft | 213 kts | 50° |
| 2026-05-01 15:12 | 48.97506 | 2.15481 | 5009 ft | 205 kts | 53° |
| 2026-05-01 15:13 | 48.97256 | 2.21140 | 4810 ft | 192 kts | 89° |
| 2026-05-01 15:14 | 48.97560 | 2.25189 | 4324 ft | 194 kts | 89° |
| 2026-05-01 15:14 | 48.97673 | 2.27227 | 4060 ft | 193 kts | 89° |
| 2026-05-01 15:14 | 48.97901 | 2.31302 | 3540 ft | 192 kts | 88° |
| 2026-05-01 15:15 | 48.98127 | 2.35343 | 3044 ft | 192 kts | 88° |
| 2026-05-01 15:15 | 48.98355 | 2.39425 | 2503 ft | 193 kts | 90° |
| 2026-05-01 15:16 | 48.98580 | 2.43519 | 2018 ft | 195 kts | 86° |
| 2026-05-01 15:16 | 48.98803 | 2.47579 | 1498 ft | 193 kts | 87° |
| 2026-05-01 15:17 | 48.99020 | 2.51564 | 1022 ft | 185 kts | 88° |
| 2026-05-01 15:18 | 48.99331 | 2.57293 | 380 ft | 176 kts | 88° |
| 2026-05-01 15:18 | 48.99429 | 2.58896 | 352 ft | 106 kts | 78° |
| 2026-05-01 15:19 | 48.99454 | 2.59189 | 350 ft | 0 kts | 81° |